Time;durP1;ratioP1;P1;durP2;ratioP2;P2;SDS_P1;SDS_P2;PMS_P1;PMS_P2;Temp;Humidity;BMP_temperature;BMP_pressure;BME280_temperature;BME280_humidity;BME280_pressure;Samples;Min_cycle;Max_cycle;Signal;HPM_P1;HPM_P2
2023/06/12 00:02:04;;;;;;;6.17;4.90;;;24.20;99.90;;;;;;5027121;28;20263;-57
2023/06/12 00:04:31;;;;;;;6.13;4.80;;;24.10;99.90;;;;;;5025962;28;20783;-59
2023/06/12 00:06:58;;;;;;;5.30;4.80;;;24.00;99.90;;;;;;5027826;28;20200;-57
2023/06/12 00:09:26;;;;;;;5.83;4.47;;;24.00;99.90;;;;;;5023132;28;20240;-57
2023/06/12 00:11:56;;;;;;;6.13;4.73;;;23.90;99.90;;;;;;5028699;28;20705;-57
2023/06/12 00:14:24;;;;;;;4.90;4.40;;;23.80;99.90;;;;;;5026161;28;20660;-57
2023/06/12 00:16:54;;;;;;;5.13;4.70;;;23.90;99.90;;;;;;5018864;28;20205;-57
2023/06/12 00:19:21;;;;;;;6.50;4.70;;;23.80;99.90;;;;;;5005415;28;20212;-57
2023/06/12 00:21:48;;;;;;;5.53;4.43;;;23.90;99.90;;;;;;5026008;28;20207;-57
2023/06/12 00:24:15;;;;;;;5.00;4.50;;;23.90;99.90;;;;;;5024148;28;20213;-59
2023/06/12 00:26:42;;;;;;;6.13;5.00;;;23.80;99.90;;;;;;5020019;28;20228;-57
2023/06/12 00:29:09;;;;;;;9.10;4.70;;;23.80;99.90;;;;;;5024396;28;20216;-58
2023/06/12 00:31:36;;;;;;;6.97;5.00;;;23.70;99.90;;;;;;5024171;28;20208;-57
2023/06/12 00:34:06;;;;;;;5.43;4.27;;;23.60;99.90;;;;;;5017614;28;21976;-62
2023/06/12 00:36:34;;;;;;;5.17;4.47;;;23.50;99.90;;;;;;5018359;28;20205;-58
2023/06/12 00:39:05;;;;;;;6.70;5.33;;;23.60;99.90;;;;;;5023187;28;20845;-57
2023/06/12 00:41:35;;;;;;;5.50;5.00;;;23.50;99.90;;;;;;5019634;28;20270;-57
2023/06/12 00:44:02;;;;;;;7.50;5.05;;;23.50;99.90;;;;;;5023153;28;20327;-57
2023/06/12 00:46:29;;;;;;;6.50;5.20;;;23.40;99.90;;;;;;5025319;28;20586;-57
2023/06/12 00:48:57;;;;;;;6.07;4.90;;;23.40;99.90;;;;;;5027221;28;20208;-57
2023/06/12 00:51:28;;;;;;;6.28;5.07;;;23.40;99.90;;;;;;5023713;28;20231;-60
2023/06/12 00:53:56;;;;;;;5.27;4.77;;;23.30;99.90;;;;;;5021313;28;20211;-57
2023/06/12 00:56:25;;;;;;;6.63;5.17;;;23.20;99.90;;;;;;5012274;28;20208;-58
2023/06/12 00:58:52;;;;;;;6.03;5.43;;;23.30;99.90;;;;;;5022277;28;21187;-57
2023/06/12 01:01:25;;;;;;;7.40;4.70;;;23.20;99.90;;;;;;5021570;28;20197;-58
2023/06/12 01:03:56;;;;;;;8.00;5.50;;;23.20;99.90;;;;;;5007444;28;20204;-57
2023/06/12 01:06:38;;;;;;;5.77;4.73;;;23.20;99.90;;;;;;5016851;28;20209;-57
2023/06/12 01:09:22;;;;;;;5.07;4.57;;;23.20;99.90;;;;;;5016536;28;20232;-57
2023/06/12 01:11:52;;;;;;;6.00;5.40;;;23.20;99.90;;;;;;5025175;28;20676;-58
2023/06/12 01:14:21;;;;;;;5.47;4.83;;;23.10;99.90;;;;;;5019981;28;20590;-57
2023/06/12 01:16:48;;;;;;;6.97;4.73;;;23.10;99.90;;;;;;5024348;28;20199;-56
2023/06/12 01:19:19;;;;;;;7.13;5.23;;;22.90;99.90;;;;;;5026695;28;20205;-57
2023/06/12 01:21:52;;;;;;;7.03;5.17;;;23.00;99.90;;;;;;5024334;28;20786;-57
2023/06/12 01:24:47;;;;;;;5.53;5.03;;;23.00;99.90;;;;;;5026729;28;20660;-60
2023/06/12 01:27:23;;;;;;;5.80;5.20;;;23.00;99.90;;;;;;5026595;28;20251;-57
2023/06/12 01:30:09;;;;;;;5.13;4.63;;;22.90;99.90;;;;;;5017543;28;20218;-58
2023/06/12 01:32:40;;;;;;;6.67;5.77;;;22.90;99.90;;;;;;5014006;28;20305;-57
2023/06/12 01:35:13;;;;;;;5.83;4.60;;;22.90;99.90;;;;;;5019036;28;20201;-60
2023/06/12 01:38:12;;;;;;;6.60;5.57;;;22.90;99.90;;;;;;5018993;28;20199;-57
2023/06/12 01:40:40;;;;;;;8.67;5.40;;;22.80;99.90;;;;;;5018640;28;20659;-57
2023/06/12 01:43:10;;;;;;;7.70;5.73;;;22.80;99.90;;;;;;5017477;28;20236;-58
2023/06/12 01:45:37;;;;;;;6.33;5.40;;;22.70;99.90;;;;;;5019541;28;20658;-57
2023/06/12 01:48:05;;;;;;;6.43;5.80;;;22.70;99.90;;;;;;5021066;28;20652;-57
2023/06/12 01:50:33;;;;;;;5.93;5.33;;;22.60;99.90;;;;;;5019958;28;20319;-58
2023/06/12 01:53:02;;;;;;;6.67;5.90;;;22.60;99.90;;;;;;5016927;28;20204;-58
2023/06/12 01:55:33;;;;;;;6.70;5.90;;;22.50;99.90;;;;;;5021506;28;20237;-57
2023/06/12 01:58:07;;;;;;;6.27;5.50;;;22.50;99.90;;;;;;5018239;28;20316;-64
2023/06/12 02:00:37;;;;;;;6.20;5.60;;;22.50;99.90;;;;;;5018758;28;20202;-57
2023/06/12 02:03:10;;;;;;;9.20;5.97;;;22.50;99.90;;;;;;5015880;28;20222;-58
2023/06/12 02:05:46;;;;;;;6.53;5.27;;;22.40;99.90;;;;;;5017803;28;20211;-58
2023/06/12 02:08:13;;;;;;;6.80;5.57;;;22.40;99.90;;;;;;5013707;28;20265;-57
2023/06/12 02:10:40;;;;;;;6.30;5.70;;;22.40;99.90;;;;;;5019764;28;20322;-57
2023/06/12 02:13:08;;;;;;;6.93;6.23;;;22.30;99.90;;;;;;5019747;28;20205;-60
2023/06/12 02:15:35;;;;;;;6.47;5.73;;;22.40;99.90;;;;;;5019350;28;20568;-56
2023/06/12 02:18:06;;;;;;;8.43;5.50;;;22.30;99.90;;;;;;5018856;28;20212;-58
2023/06/12 02:20:34;;;;;;;8.33;5.33;;;22.30;99.90;;;;;;5019084;28;20216;-59
2023/06/12 02:23:01;;;;;;;5.70;5.10;;;22.30;99.90;;;;;;5017704;28;20636;-56
2023/06/12 02:25:28;;;;;;;7.37;5.47;;;22.30;99.90;;;;;;5020880;28;20235;-56
2023/06/12 02:27:58;;;;;;;6.47;5.23;;;22.20;99.90;;;;;;5019674;28;20296;-57
2023/06/12 02:30:28;;;;;;;8.97;5.63;;;22.30;99.90;;;;;;5022174;28;20266;-56
2023/06/12 02:32:57;;;;;;;5.87;5.37;;;22.20;99.90;;;;;;5022737;28;20232;-58
2023/06/12 02:35:24;;;;;;;5.80;5.30;;;22.30;99.90;;;;;;5022330;28;20288;-56
2023/06/12 02:37:51;;;;;;;6.47;5.50;;;22.20;99.90;;;;;;5022502;28;20709;-56
2023/06/12 02:40:19;;;;;;;5.40;4.90;;;22.10;99.90;;;;;;5024664;28;20203;-56
2023/06/12 02:42:56;;;;;;;;;;;;;;;;;;;;;
2023/06/12 02:45:25;;;;;;;8.27;5.30;;;22.10;99.90;;;;;;5023957;28;20200;-57
2023/06/12 02:47:54;;;;;;;6.73;4.97;;;22.10;99.90;;;;;;5039149;28;20245;-59
2023/06/12 02:50:24;;;;;;;5.60;5.00;;;22.10;99.90;;;;;;5022793;28;20224;-65
2023/06/12 02:53:02;;;;;;;8.10;4.97;;;22.00;99.90;;;;;;5022218;28;20590;-57
2023/06/12 02:55:39;;;;;;;7.27;5.63;;;22.00;99.90;;;;;;5039318;28;20680;-59
2023/06/12 02:58:10;;;;;;;8.77;5.63;;;21.90;99.90;;;;;;5020419;28;20209;-57
2023/06/12 03:00:37;;;;;;;8.03;5.57;;;21.90;99.90;;;;;;5022154;28;21210;-60
2023/06/12 03:03:08;;;;;;;6.60;5.47;;;21.90;99.90;;;;;;5019222;28;20312;-56
2023/06/12 03:05:41;;;;;;;5.40;4.90;;;21.80;99.90;;;;;;5009494;28;20221;-57
2023/06/12 03:08:16;;;;;;;5.53;4.90;;;21.80;99.90;;;;;;5023765;28;20212;-57
2023/06/12 03:10:43;;;;;;;7.97;5.00;;;21.70;99.90;;;;;;5017552;28;20236;-56
2023/06/12 03:13:12;;;;;;;6.50;5.80;;;21.70;99.90;;;;;;5017276;28;20213;-57
2023/06/12 03:15:40;;;;;;;6.90;5.77;;;21.70;99.90;;;;;;5021298;28;20263;-58
2023/06/12 03:18:10;;;;;;;6.10;5.17;;;21.70;99.90;;;;;;5027174;28;20253;-58
2023/06/12 03:20:37;;;;;;;6.47;5.27;;;21.70;99.90;;;;;;5027869;28;20208;-58
2023/06/12 03:23:05;;;;;;;7.10;5.27;;;21.70;99.90;;;;;;5027590;28;20221;-57
2023/06/12 03:25:32;;;;;;;6.30;5.70;;;21.60;99.90;;;;;;5027296;28;20216;-58
2023/06/12 03:28:02;;;;;;;5.80;5.20;;;21.60;99.90;;;;;;5028697;28;20606;-62
2023/06/12 03:30:35;;;;;;;6.63;5.73;;;21.60;99.90;;;;;;5024386;28;21159;-58
2023/06/12 03:33:05;;;;;;;6.77;5.33;;;21.50;99.90;;;;;;5025258;28;20282;-58
2023/06/12 03:35:35;;;;;;;5.90;5.10;;;21.50;99.90;;;;;;5028397;28;20197;-59
2023/06/12 03:38:03;;;;;;;6.20;5.67;;;21.60;99.90;;;;;;5027251;28;20641;-58
2023/06/12 03:40:31;;;;;;;6.00;5.27;;;21.40;99.90;;;;;;5025416;28;20232;-58
2023/06/12 03:43:01;;;;;;;5.93;5.33;;;21.40;99.90;;;;;;5026975;28;20594;-58
2023/06/12 03:45:28;;;;;;;6.40;5.47;;;21.40;99.90;;;;;;5025928;28;20553;-59
2023/06/12 03:47:56;;;;;;;8.47;5.53;;;21.50;99.90;;;;;;5024419;28;20291;-56
2023/06/12 03:50:37;;;;;;;7.13;5.50;;;21.40;99.90;;;;;;5024033;28;20302;-57
2023/06/12 03:53:13;;;;;;;9.73;5.27;;;21.30;99.90;;;;;;5027399;28;20554;-60
2023/06/12 03:55:45;;;;;;;7.67;5.90;;;21.30;99.90;;;;;;5027256;28;20203;-56
2023/06/12 03:58:16;;;;;;;7.00;6.30;;;21.30;99.90;;;;;;5025440;28;20197;-57
2023/06/12 04:00:47;;;;;;;5.67;5.13;;;21.30;99.90;;;;;;5030259;28;20578;-58
2023/06/12 04:03:18;;;;;;;9.23;5.97;;;21.20;99.90;;;;;;5025923;28;20217;-57
2023/06/12 04:05:46;;;;;;;7.20;5.93;;;21.10;99.90;;;;;;5021617;28;20204;-61
2023/06/12 04:08:16;;;;;;;9.63;5.80;;;21.10;99.90;;;;;;5026347;28;20220;-63
2023/06/12 04:10:44;;;;;;;8.63;6.10;;;21.10;99.90;;;;;;5025401;28;20227;-59
2023/06/12 04:13:15;;;;;;;6.27;5.67;;;21.00;99.90;;;;;;5025611;28;20207;-57
2023/06/12 04:15:47;;;;;;;8.17;6.10;;;21.10;99.90;;;;;;5022764;28;20211;-57
2023/06/12 04:18:18;;;;;;;6.53;5.93;;;20.90;99.90;;;;;;5027951;28;20204;-57
2023/06/12 04:20:45;;;;;;;7.53;5.50;;;21.00;99.90;;;;;;5025496;28;20233;-58
2023/06/12 04:23:12;;;;;;;6.50;5.80;;;20.90;99.90;;;;;;5022734;28;20246;-58
2023/06/12 04:25:42;;;;;;;7.13;5.70;;;21.00;99.90;;;;;;5025887;28;20226;-58
2023/06/12 04:28:13;;;;;;;5.90;5.20;;;21.10;99.90;;;;;;5024585;28;20288;-58
2023/06/12 04:30:41;;;;;;;6.17;5.57;;;21.10;99.90;;;;;;5025024;28;20238;-61
2023/06/12 04:33:11;;;;;;;6.80;5.43;;;21.20;99.90;;;;;;5023108;28;20719;-58
2023/06/12 04:35:47;;;;;;;5.87;5.27;;;21.20;99.90;;;;;;5024118;28;20963;-61
2023/06/12 04:38:14;;;;;;;7.17;6.03;;;21.20;99.90;;;;;;5018992;28;21133;-61
2023/06/12 04:40:44;;;;;;;8.10;5.13;;;21.20;99.90;;;;;;5028298;28;20215;-58
2023/06/12 04:43:11;;;;;;;9.07;5.30;;;21.20;99.90;;;;;;5023812;28;20574;-61
2023/06/12 04:45:44;;;;;;;6.53;5.60;;;21.30;99.90;;;;;;5020570;28;20295;-57
2023/06/12 04:48:12;;;;;;;6.73;5.50;;;21.30;99.90;;;;;;5024256;28;20800;-57
2023/06/12 04:50:42;;;;;;;6.60;5.80;;;21.30;99.90;;;;;;5025415;28;20219;-57
2023/06/12 04:53:09;;;;;;;6.47;5.83;;;21.30;99.90;;;;;;5021872;28;20293;-57
2023/06/12 04:55:37;;;;;;;6.63;5.53;;;21.20;99.90;;;;;;5022235;28;20620;-57
2023/06/12 04:58:10;;;;;;;6.60;5.33;;;21.20;99.90;;;;;;5025505;28;20676;-57
2023/06/12 05:00:39;;;;;;;9.60;5.57;;;21.40;99.90;;;;;;5027055;28;20292;-58
2023/06/12 05:03:16;;;;;;;7.90;5.33;;;21.30;99.90;;;;;;5021190;28;20203;-56
2023/06/12 05:05:47;;;;;;;7.10;5.60;;;21.40;99.90;;;;;;5027171;28;20228;-58
2023/06/12 05:08:21;;;;;;;5.90;5.00;;;21.60;99.90;;;;;;5023314;28;20204;-58
2023/06/12 05:10:54;;;;;;;7.87;5.70;;;21.60;99.90;;;;;;5019907;28;21078;-56
2023/06/12 05:13:21;;;;;;;7.70;5.60;;;21.60;99.90;;;;;;5019627;28;20224;-58
2023/06/12 05:15:49;;;;;;;8.70;5.43;;;21.80;99.90;;;;;;5035699;28;20251;-58
2023/06/12 05:18:26;;;;;;;6.50;5.47;;;21.80;99.90;;;;;;5022065;28;20226;-57
2023/06/12 05:20:58;;;;;;;6.43;5.30;;;21.90;99.90;;;;;;5022849;28;20201;-59
2023/06/12 05:23:28;;;;;;;6.03;5.20;;;21.80;99.90;;;;;;5020349;28;20215;-58
2023/06/12 05:25:56;;;;;;;7.23;5.47;;;22.00;99.90;;;;;;5020063;28;21569;-58
2023/06/12 05:28:29;;;;;;;6.90;5.63;;;22.10;99.90;;;;;;5012147;28;20672;-58
2023/06/12 05:30:57;;;;;;;6.10;5.33;;;22.00;99.90;;;;;;5025524;28;20227;-57
2023/06/12 05:33:24;;;;;;;8.33;5.17;;;22.30;99.90;;;;;;5018982;28;20232;-56
2023/06/12 05:35:54;;;;;;;6.17;5.53;;;22.20;99.90;;;;;;5020719;28;20980;-59
2023/06/12 05:38:22;;;;;;;9.27;5.33;;;22.40;99.90;;;;;;5020718;28;20204;-58
2023/06/12 05:40:49;;;;;;;6.03;5.20;;;22.50;99.90;;;;;;5013375;28;20216;-57
2023/06/12 05:43:16;;;;;;;6.17;5.57;;;22.50;99.90;;;;;;5028427;28;20209;-57
2023/06/12 05:45:43;;;;;;;7.87;5.57;;;22.60;99.90;;;;;;5018313;28;20209;-59
2023/06/12 05:48:10;;;;;;;6.73;5.97;;;22.70;99.90;;;;;;4660420;28;9999819;-57
2023/06/12 05:50:43;;;;;;;6.43;5.70;;;22.80;99.90;;;;;;4992978;28;20581;-57
2023/06/12 05:53:20;;;;;;;7.47;5.37;;;22.80;99.90;;;;;;5014097;28;20231;-58
2023/06/12 05:55:47;;;;;;;7.93;5.40;;;22.80;99.90;;;;;;5017293;28;20204;-58
2023/06/12 05:58:14;;;;;;;8.97;5.90;;;22.80;99.90;;;;;;5002037;28;20196;-58
2023/06/12 06:00:49;;;;;;;6.40;5.60;;;23.00;99.90;;;;;;5002032;28;20213;-58
2023/06/12 06:03:19;;;;;;;6.30;5.20;;;23.10;99.90;;;;;;5017799;28;20203;-57
2023/06/12 06:05:46;;;;;;;7.87;5.83;;;23.10;99.90;;;;;;5013813;28;20212;-58
2023/06/12 06:08:17;;;;;;;7.67;5.53;;;23.20;99.90;;;;;;5015535;28;20201;-58
2023/06/12 06:10:47;;;;;;;6.87;5.07;;;23.20;99.90;;;;;;5024342;28;20216;-58
2023/06/12 06:13:15;;;;;;;7.97;5.83;;;23.30;99.90;;;;;;5015633;28;20258;-57
2023/06/12 06:15:42;;;;;;;5.87;5.23;;;23.10;99.90;;;;;;5005440;28;20200;-57
2023/06/12 06:18:12;;;;;;;6.27;5.67;;;23.30;99.90;;;;;;4995252;28;20605;-57
2023/06/12 06:20:39;;;;;;;9.17;5.63;;;23.50;99.90;;;;;;5000926;28;20205;-57
2023/06/12 06:23:07;;;;;;;6.03;5.37;;;23.40;99.90;;;;;;5010930;28;20220;-56
2023/06/12 06:25:38;;;;;;;7.20;5.40;;;23.60;99.90;;;;;;5012885;28;20204;-58
2023/06/12 06:28:09;;;;;;;7.13;5.43;;;23.80;99.90;;;;;;5000838;28;20203;-57
2023/06/12 06:30:36;;;;;;;6.30;5.20;;;23.90;99.90;;;;;;5004127;28;20707;-57
2023/06/12 06:33:14;;;;;;;5.77;5.20;;;23.80;99.90;;;;;;5010998;28;20271;-59
2023/06/12 06:35:43;;;;;;;7.17;5.03;;;24.00;99.90;;;;;;5000016;28;20212;-58
2023/06/12 06:38:11;;;;;;;7.90;5.67;;;24.40;99.90;;;;;;5002639;28;20209;-57
2023/06/12 06:40:37;;;;;;;8.33;4.57;;;24.30;99.90;;;;;;5008425;28;20231;-61
2023/06/12 06:43:05;;;;;;;6.03;4.63;;;24.60;99.90;;;;;;5003927;28;20204;-57
2023/06/12 06:45:32;;;;;;;6.37;5.13;;;24.80;99.90;;;;;;5006136;28;20307;-56
2023/06/12 06:48:05;;;;;;;5.32;4.55;;;25.10;99.90;;;;;;5005207;28;21147;-57
2023/06/12 06:50:37;;;;;;;6.60;5.10;;;25.00;99.90;;;;;;5002780;28;20582;-58
2023/06/12 06:53:06;;;;;;;6.00;5.00;;;25.00;99.90;;;;;;5031686;28;20220;-58
2023/06/12 06:55:34;;;;;;;8.25;5.05;;;25.00;99.90;;;;;;5000782;28;20296;-58
2023/06/12 06:58:04;;;;;;;6.85;4.90;;;25.10;99.90;;;;;;5024491;28;20646;-57
2023/06/12 07:00:31;;;;;;;6.67;4.90;;;25.00;99.90;;;;;;5008032;28;20201;-58
2023/06/12 07:02:59;;;;;;;7.65;5.00;;;25.20;99.90;;;;;;5006842;28;20820;-58
2023/06/12 07:05:29;;;;;;;7.63;5.25;;;25.20;99.90;;;;;;5008477;28;20213;-57
2023/06/12 07:07:56;;;;;;;10.38;5.50;;;25.30;99.90;;;;;;5011002;28;20210;-60
2023/06/12 07:10:28;;;;;;;5.68;4.80;;;25.50;99.90;;;;;;5020810;28;20366;-57
2023/06/12 07:12:58;;;;;;;5.55;5.05;;;25.60;99.90;;;;;;5021718;28;20668;-58
2023/06/12 07:15:25;;;;;;;6.20;4.70;;;25.70;99.90;;;;;;5015154;28;20232;-58
2023/06/12 07:17:52;;;;;;;5.22;4.72;;;25.80;99.90;;;;;;5023297;28;20779;-60
2023/06/12 07:20:20;;;;;;;6.75;4.97;;;26.10;99.90;;;;;;5016826;28;20705;-58
2023/06/12 07:22:47;;;;;;;6.68;4.82;;;26.90;99.90;;;;;;5020792;28;20972;-56
2023/06/12 07:25:17;;;;;;;5.32;4.82;;;26.60;99.90;;;;;;5017112;28;20618;-57
2023/06/12 07:27:45;;;;;;;6.93;4.75;;;27.30;99.90;;;;;;5015979;28;20229;-58
2023/06/12 07:30:12;;;;;;;5.60;4.97;;;27.60;99.90;;;;;;5020663;28;20225;-56
2023/06/12 07:32:39;;;;;;;5.10;4.53;;;27.80;99.90;;;;;;5014087;28;20286;-54
2023/06/12 07:35:12;;;;;;;5.97;4.60;;;27.90;99.90;;;;;;5018448;28;20209;-64
2023/06/12 07:37:50;;;;;;;5.65;4.22;;;27.80;99.90;;;;;;5021021;28;20212;-62
2023/06/12 07:40:17;;;;;;;7.47;4.40;;;27.60;99.90;;;;;;5005508;28;20204;-58
2023/06/12 07:42:45;;;;;;;6.00;4.05;;;28.80;99.90;;;;;;5006214;28;20212;-56
2023/06/12 07:45:12;;;;;;;5.60;4.25;;;29.00;99.90;;;;;;5005101;28;20862;-55
2023/06/12 07:47:39;;;;;;;4.95;4.50;;;28.90;99.90;;;;;;4997355;28;20204;-58
2023/06/12 07:50:07;;;;;;;5.97;4.72;;;28.70;99.90;;;;;;5010643;28;20217;-56
2023/06/12 07:52:34;;;;;;;8.60;4.88;;;29.10;99.90;;;;;;5019385;28;20200;-56
2023/06/12 07:55:03;;;;;;;5.03;4.28;;;29.60;99.90;;;;;;5017938;28;20215;-56
2023/06/12 07:57:30;;;;;;;5.28;4.78;;;29.40;99.90;;;;;;5018865;28;20372;-56
2023/06/12 08:00:05;;;;;;;6.40;4.13;;;29.80;99.90;;;;;;5013367;28;20735;-56
2023/06/12 08:02:38;;;;;;;5.60;4.13;;;30.10;99.90;;;;;;5019748;28;20211;-71
2023/06/12 08:05:07;;;;;;;5.85;4.55;;;30.70;99.90;;;;;;5011348;28;20266;-60
2023/06/12 08:07:34;;;;;;;7.53;4.50;;;30.30;99.90;;;;;;5016171;28;20657;-56
2023/06/12 08:10:01;;;;;;;5.05;4.53;;;30.90;99.90;;;;;;5008111;28;20232;-59
2023/06/12 08:12:28;;;;;;;5.50;4.30;;;31.20;99.90;;;;;;5018077;28;20675;-57
2023/06/12 08:14:55;;;;;;;4.88;4.40;;;31.40;99.90;;;;;;5006505;28;20270;-56
2023/06/12 08:17:26;;;;;;;4.75;4.05;;;31.90;99.90;;;;;;5019427;28;20587;-59
2023/06/12 08:19:55;;;;;;;4.30;3.90;;;31.90;99.90;;;;;;5017791;28;20898;-56
2023/06/12 08:22:23;;;;;;;5.07;4.55;;;31.60;99.90;;;;;;5017423;28;20228;-58
2023/06/12 08:24:50;;;;;;;5.18;4.50;;;31.40;99.90;;;;;;5015671;28;20227;-58
2023/06/12 08:27:17;;;;;;;5.30;4.80;;;31.00;99.90;;;;;;5007229;28;20208;-57
2023/06/12 08:29:44;;;;;;;5.90;4.63;;;31.30;99.90;;;;;;5019990;28;20569;-56
2023/06/12 08:32:11;;;;;;;5.57;4.88;;;31.70;99.90;;;;;;5011431;28;20216;-58
2023/06/12 08:34:38;;;;;;;7.70;4.80;;;31.80;99.90;;;;;;5006087;28;20275;-56
2023/06/12 08:37:05;;;;;;;6.97;5.15;;;31.70;99.90;;;;;;5011908;28;20196;-55
2023/06/12 08:39:34;;;;;;;6.03;5.13;;;31.80;99.90;;;;;;5000223;28;20204;-57
2023/06/12 08:42:08;;;;;;;6.93;4.90;;;32.10;99.90;;;;;;4996130;28;20212;-56
2023/06/12 08:44:35;;;;;;;4.85;4.45;;;30.70;99.90;;;;;;4991436;28;20735;-56
2023/06/12 08:47:03;;;;;;;5.13;4.63;;;31.60;99.90;;;;;;4996569;28;20283;-57
2023/06/12 08:49:31;;;;;;;6.20;4.63;;;31.70;99.90;;;;;;5013930;28;20263;-59
2023/06/12 08:52:00;;;;;;;5.47;4.57;;;31.70;99.90;;;;;;5018227;28;20598;-55
2023/06/12 08:54:34;;;;;;;5.65;4.45;;;31.90;99.90;;;;;;5013098;28;20641;-56
2023/06/12 08:57:03;;;;;;;4.88;4.47;;;31.50;99.90;;;;;;5013638;28;20255;-57
2023/06/12 08:59:33;;;;;;;5.50;4.68;;;31.20;99.90;;;;;;5019093;28;20612;-59
2023/06/12 09:02:01;;;;;;;10.73;5.28;;;30.80;99.90;;;;;;5016523;28;20288;-56
2023/06/12 09:04:54;;;;;;;4.47;4.10;;;31.40;99.90;;;;;;5017989;28;20220;-56
2023/06/12 09:07:24;;;;;;;5.90;4.32;;;31.70;99.90;;;;;;5014860;28;20248;-56
2023/06/12 09:09:51;;;;;;;6.43;4.28;;;31.20;99.90;;;;;;5017325;28;20296;-56
2023/06/12 09:12:18;;;;;;;5.28;4.80;;;31.50;99.90;;;;;;5017133;28;20662;-56
2023/06/12 09:14:48;;;;;;;4.85;4.30;;;31.60;99.90;;;;;;5017845;28;20617;-56
2023/06/12 09:17:15;;;;;;;6.20;4.47;;;31.30;99.90;;;;;;5013898;28;20213;-56
2023/06/12 09:19:45;;;;;;;4.78;4.32;;;30.70;99.90;;;;;;5012222;28;21294;-58
2023/06/12 09:22:12;;;;;;;5.28;4.78;;;30.30;99.90;;;;;;5012976;28;20251;-57
2023/06/12 09:24:40;;;;;;;5.00;4.50;;;30.00;99.90;;;;;;5013116;28;20200;-56
2023/06/12 09:27:08;;;;;;;4.80;4.35;;;30.50;99.90;;;;;;5017596;28;20295;-61
2023/06/12 09:29:38;;;;;;;6.28;4.50;;;31.30;99.90;;;;;;5015487;28;20577;-56
2023/06/12 09:32:08;;;;;;;5.95;4.43;;;31.50;99.90;;;;;;5016336;28;20216;-56
2023/06/12 09:34:35;;;;;;;5.88;4.68;;;32.20;99.90;;;;;;5014994;28;20289;-56
2023/06/12 09:37:09;;;;;;;8.02;4.13;;;32.10;99.90;;;;;;5010613;28;20211;-57
2023/06/12 09:39:36;;;;;;;4.45;4.05;;;32.40;99.90;;;;;;5012636;28;20219;-62
2023/06/12 09:42:03;;;;;;;5.07;4.18;;;32.30;99.90;;;;;;5022753;28;20361;-56
2023/06/12 09:44:30;;;;;;;5.88;4.18;;;31.90;99.90;;;;;;5020585;28;20230;-57
2023/06/12 09:47:04;;;;;;;4.18;3.78;;;31.40;99.90;;;;;;5022681;28;20208;-56
2023/06/12 09:49:34;;;;;;;7.72;4.10;;;32.00;99.90;;;;;;5015721;28;20200;-56
2023/06/12 09:52:04;;;;;;;5.05;3.85;;;32.20;99.90;;;;;;5016953;28;20225;-57
2023/06/12 09:54:32;;;;;;;5.30;3.97;;;31.50;99.90;;;;;;5019083;28;20197;-55
2023/06/12 09:57:05;;;;;;;4.20;3.80;;;31.70;99.90;;;;;;5022778;28;23114;-56
2023/06/12 09:59:33;;;;;;;6.38;3.63;;;31.50;99.90;;;;;;5022032;28;20201;-56
2023/06/12 10:02:15;;;;;;;4.40;4.00;;;31.70;99.90;;;;;;5020651;28;20291;-56
2023/06/12 10:05:02;;;;;;;4.35;3.92;;;32.10;99.90;;;;;;5020868;28;20208;-56
2023/06/12 10:07:37;;;;;;;5.10;4.30;;;31.90;99.90;;;;;;5018955;28;20233;-56
2023/06/12 10:10:07;;;;;;;8.10;4.63;;;32.00;99.90;;;;;;5018631;28;20277;-56
2023/06/12 10:12:35;;;;;;;4.13;3.72;;;31.90;99.90;;;;;;5018405;28;20244;-56
2023/06/12 10:15:05;;;;;;;5.28;4.05;;;31.50;99.90;;;;;;5021772;28;20212;-56
2023/06/12 10:17:33;;;;;;;4.68;4.28;;;31.80;99.90;;;;;;5016692;28;21067;-56
2023/06/12 10:20:03;;;;;;;4.38;3.97;;;31.90;99.90;;;;;;5013183;28;20205;-57
2023/06/12 10:22:30;;;;;;;4.25;3.60;;;31.40;99.90;;;;;;5015855;28;20624;-56
2023/06/12 10:24:58;;;;;;;5.18;4.13;;;31.50;99.90;;;;;;5018923;28;20621;-56
2023/06/12 10:27:25;;;;;;;5.35;4.00;;;31.20;99.90;;;;;;5014920;28;20216;-56
2023/06/12 10:29:56;;;;;;;4.70;3.72;;;31.40;99.90;;;;;;5014906;28;20726;-56
2023/06/12 10:32:24;;;;;;;6.22;4.32;;;32.00;99.90;;;;;;5017218;28;20209;-56
2023/06/12 10:34:54;;;;;;;7.05;3.70;;;32.20;99.90;;;;;;5005049;28;20225;-56
2023/06/12 10:37:38;;;;;;;5.00;4.05;;;32.10;99.90;;;;;;5011704;28;20204;-56
2023/06/12 10:40:16;;;;;;;4.78;3.72;;;31.90;99.90;;;;;;5018527;28;20830;-56
2023/06/12 10:43:04;;;;;;;5.22;4.00;;;31.90;99.90;;;;;;5016735;28;20217;-55
2023/06/12 10:45:32;;;;;;;6.95;4.60;;;31.60;99.90;;;;;;5010290;28;20205;-56
2023/06/12 10:48:05;;;;;;;4.70;4.18;;;31.30;99.90;;;;;;5016560;28;20614;-57
2023/06/12 10:50:37;;;;;;;6.40;4.47;;;31.70;99.90;;;;;;5015201;28;20610;-56
2023/06/12 10:53:07;;;;;;;6.60;4.68;;;31.80;99.90;;;;;;5018328;28;20227;-58
2023/06/12 10:55:36;;;;;;;5.00;4.50;;;32.10;99.90;;;;;;5019833;28;20204;-57
2023/06/12 10:58:04;;;;;;;4.88;3.97;;;31.40;99.90;;;;;;5018029;28;20202;-56
2023/06/12 11:00:32;;;;;;;4.55;4.15;;;32.00;99.90;;;;;;5017160;28;20212;-60
2023/06/12 11:03:03;;;;;;;4.63;4.22;;;32.30;99.90;;;;;;5007065;28;20300;-61
2023/06/12 11:05:31;;;;;;;5.88;5.13;;;32.30;99.90;;;;;;5015882;28;20205;-56
2023/06/12 11:08:00;;;;;;;4.65;4.25;;;32.20;99.90;;;;;;4999988;28;20316;-61
2023/06/12 11:10:29;;;;;;;5.10;4.00;;;32.30;99.90;;;;;;5016707;28;20243;-56
2023/06/12 11:12:56;;;;;;;5.10;4.32;;;33.30;99.90;;;;;;5014745;28;20693;-56
2023/06/12 11:15:24;;;;;;;7.60;4.35;;;34.00;99.90;;;;;;5012380;28;20725;-55
2023/06/12 11:17:52;;;;;;;5.60;4.47;;;33.30;99.90;;;;;;5017355;28;20197;-57
2023/06/12 11:20:22;;;;;;;4.63;4.22;;;32.40;99.90;;;;;;5018088;28;20677;-55
2023/06/12 11:23:01;;;;;;;4.97;4.55;;;32.60;99.90;;;;;;5013536;28;20220;-55
2023/06/12 11:25:33;;;;;;;5.72;4.80;;;32.60;99.90;;;;;;4999113;28;20204;-57
2023/06/12 11:28:00;;;;;;;4.97;4.47;;;33.10;99.90;;;;;;5016440;28;20874;-55
2023/06/12 11:30:27;;;;;;;6.47;5.13;;;33.40;99.90;;;;;;5017414;28;20205;-61
2023/06/12 11:33:08;;;;;;;5.88;4.85;;;33.50;99.90;;;;;;5016799;28;20709;-60
2023/06/12 11:35:39;;;;;;;8.82;4.97;;;34.00;99.90;;;;;;5013197;28;20196;-58
2023/06/12 11:38:07;;;;;;;5.63;4.63;;;34.30;99.90;;;;;;5013310;28;20215;-59
2023/06/12 11:40:38;;;;;;;5.00;4.50;;;33.90;99.90;;;;;;5013165;28;20227;-59
2023/06/12 11:43:06;;;;;;;8.05;4.60;;;34.70;99.90;;;;;;5015148;28;20407;-59
2023/06/12 11:45:33;;;;;;;4.90;4.28;;;34.50;99.90;;;;;;5015135;28;20205;-59
2023/06/12 11:48:00;;;;;;;5.38;4.53;;;34.50;99.90;;;;;;5016612;28;20819;-59
2023/06/12 11:50:32;;;;;;;6.25;4.80;;;34.70;99.90;;;;;;5017987;28;20660;-59
2023/06/12 11:52:59;;;;;;;5.05;4.55;;;35.80;99.90;;;;;;5016613;28;20229;-59
2023/06/12 11:55:26;;;;;;;6.28;4.55;;;35.50;99.90;;;;;;5011696;28;20196;-60
2023/06/12 11:58:01;;;;;;;5.93;4.70;;;34.60;99.90;;;;;;5013881;28;20204;-60
2023/06/12 12:00:30;;;;;;;5.20;4.63;;;34.20;99.90;;;;;;5012505;28;20286;-60
2023/06/12 12:03:01;;;;;;;4.97;4.47;;;34.70;99.90;;;;;;5021462;28;20219;-60
2023/06/12 12:05:36;;;;;;;7.22;5.07;;;35.20;99.90;;;;;;5025769;28;20196;-60
2023/06/12 12:08:05;;;;;;;5.25;4.68;;;34.90;99.90;;;;;;5024376;28;20199;-59
2023/06/12 12:10:37;;;;;;;4.97;4.57;;;33.60;99.90;;;;;;5020292;28;20322;-59
2023/06/12 12:13:04;;;;;;;6.70;4.72;;;33.10;99.90;;;;;;5023340;28;20763;-62
2023/06/12 12:15:34;;;;;;;7.72;4.63;;;33.40;99.90;;;;;;5026542;28;20676;-61
2023/06/12 12:18:02;;;;;;;6.75;4.88;;;34.00;99.90;;;;;;5036723;28;20197;-59
2023/06/12 12:20:30;;;;;;;9.13;5.20;;;34.10;99.90;;;;;;5025770;28;20274;-59
2023/06/12 12:22:59;;;;;;;7.22;4.72;;;33.50;99.90;;;;;;5024775;28;20227;-62
2023/06/12 12:25:31;;;;;;;5.70;4.80;;;33.30;99.90;;;;;;5027051;28;20223;-59
2023/06/12 12:27:59;;;;;;;5.55;4.90;;;33.60;99.90;;;;;;5027302;28;20236;-59
2023/06/12 12:30:27;;;;;;;5.63;5.07;;;33.40;99.90;;;;;;5025030;28;20204;-61
2023/06/12 12:32:56;;;;;;;6.07;5.25;;;33.40;99.90;;;;;;5025339;28;20240;-59
2023/06/12 12:35:24;;;;;;;5.13;4.63;;;34.30;99.90;;;;;;5024634;28;20230;-58
2023/06/12 12:37:53;;;;;;;5.18;4.78;;;33.90;99.90;;;;;;5025448;28;20204;-59
2023/06/12 12:40:23;;;;;;;6.03;4.78;;;33.50;99.90;;;;;;5025243;28;20607;-59
2023/06/12 12:42:51;;;;;;;6.35;4.95;;;32.60;99.90;;;;;;5023300;28;20205;-59
2023/06/12 12:45:19;;;;;;;8.30;4.68;;;33.30;99.90;;;;;;5022633;28;20219;-63
2023/06/12 12:47:51;;;;;;;6.18;4.30;;;33.80;99.90;;;;;;5014446;28;20236;-58
2023/06/12 12:50:20;;;;;;;6.10;4.60;;;33.70;99.90;;;;;;5014083;28;20715;-59
2023/06/12 12:52:52;;;;;;;5.25;4.13;;;32.70;99.90;;;;;;5015375;28;20209;-59
2023/06/12 12:55:19;;;;;;;5.78;4.43;;;32.40;99.90;;;;;;5019852;28;20209;-60
2023/06/12 12:57:46;;;;;;;5.75;5.18;;;32.80;99.90;;;;;;5017325;28;20193;-59
2023/06/12 13:00:17;;;;;;;5.82;4.47;;;33.30;99.90;;;;;;5015650;28;20201;-59
2023/06/12 13:02:45;;;;;;;6.40;5.00;;;33.60;99.90;;;;;;5014877;28;20571;-63